createdAt,value
2022-11-05T00:00:36.519Z,100.00
2022-11-05T00:03:03.154Z,99.43
2022-11-05T00:05:31.066Z,99.34
2022-11-05T00:07:59.852Z,99.45
2022-11-05T00:10:30.462Z,99.54
2022-11-05T00:12:59.339Z,99.96
2022-11-05T00:15:25.921Z,100.00
2022-11-05T00:17:52.692Z,100.00
2022-11-05T00:20:19.233Z,100.00
2022-11-05T00:22:46.032Z,99.89
2022-11-05T00:25:13.046Z,99.89
2022-11-05T00:27:41.164Z,99.59
2022-11-05T00:30:08.808Z,99.80
2022-11-05T00:32:36.600Z,99.47
2022-11-05T00:35:03.454Z,99.60
2022-11-05T00:37:30.176Z,99.65
2022-11-05T00:39:56.786Z,99.50
2022-11-05T00:42:23.406Z,99.64
2022-11-05T00:44:51.460Z,99.80
2022-11-05T00:47:18.308Z,99.66
2022-11-05T00:49:45.071Z,99.74
2022-11-05T00:52:11.671Z,99.78
2022-11-05T00:54:38.323Z,99.77
2022-11-05T00:57:05.007Z,99.93
2022-11-05T00:59:31.569Z,99.98
2022-11-05T01:01:59.702Z,99.62
2022-11-05T01:04:26.401Z,99.53
2022-11-05T01:06:52.937Z,99.45
2022-11-05T01:09:19.470Z,99.73
2022-11-05T01:11:46.322Z,99.54
2022-11-05T01:14:15.150Z,99.58
2022-11-05T01:16:42.225Z,99.15
2022-11-05T01:19:11.034Z,99.12
2022-11-05T01:21:38.021Z,98.88
2022-11-05T01:24:05.238Z,99.02
2022-11-05T01:26:31.776Z,99.18
2022-11-05T01:28:59.018Z,99.61
2022-11-05T01:31:26.281Z,99.70
2022-11-05T01:33:52.829Z,100.00
2022-11-05T01:36:20.741Z,100.00
2022-11-05T01:38:47.265Z,100.00
2022-11-05T01:41:13.857Z,100.00
2022-11-05T01:43:49.039Z,99.76
2022-11-05T01:46:19.563Z,100.00
2022-11-05T01:48:48.287Z,100.00
2022-11-05T01:51:18.288Z,100.00
2022-11-05T01:53:50.822Z,100.00
2022-11-05T01:56:22.787Z,100.00
2022-11-05T01:58:54.596Z,100.00
2022-11-05T02:01:21.652Z,100.00
2022-11-05T02:03:50.416Z,100.00
2022-11-05T02:06:18.473Z,100.00
2022-11-05T02:08:55.856Z,100.00
2022-11-05T02:11:22.970Z,100.00
2022-11-05T02:13:50.481Z,100.00
2022-11-05T02:16:27.300Z,100.00
2022-11-05T02:19:00.108Z,100.00
2022-11-05T02:22:12.191Z,100.00
2022-11-05T02:25:00.164Z,100.00
2022-11-05T02:27:58.969Z,100.00
2022-11-05T02:30:38.371Z,100.00
2022-11-05T02:33:16.644Z,100.00
2022-11-05T02:36:15.220Z,100.00
2022-11-05T02:38:51.088Z,100.00
2022-11-05T02:41:24.438Z,100.00
2022-11-05T02:44:02.940Z,100.00
2022-11-05T02:46:43.864Z,100.00
2022-11-05T02:49:22.110Z,100.00
2022-11-05T02:51:55.145Z,100.00
2022-11-05T02:54:28.951Z,100.00
2022-11-05T02:56:59.134Z,100.00
2022-11-05T02:59:25.736Z,100.00
2022-11-05T03:01:54.779Z,100.00
2022-11-05T03:04:23.589Z,100.00
2022-11-05T03:07:14.261Z,100.00
2022-11-05T03:10:37.916Z,100.00
2022-11-05T03:13:15.366Z,100.00
2022-11-05T03:15:52.265Z,100.00
2022-11-05T03:18:28.958Z,100.00
2022-11-05T03:21:02.983Z,100.00
2022-11-05T03:23:35.511Z,100.00
2022-11-05T03:26:07.595Z,100.00
2022-11-05T03:28:39.885Z,100.00
2022-11-05T03:31:07.842Z,100.00
2022-11-05T03:33:38.544Z,100.00
2022-11-05T03:36:11.815Z,100.00
2022-11-05T03:38:42.144Z,100.00
2022-11-05T03:41:11.828Z,100.00
2022-11-05T03:43:43.045Z,100.00
2022-11-05T03:46:12.166Z,100.00
2022-11-05T03:48:45.347Z,100.00
2022-11-05T03:51:18.550Z,100.00
2022-11-05T03:53:49.848Z,100.00
2022-11-05T03:56:23.997Z,100.00
2022-11-05T03:58:57.577Z,100.00
2022-11-05T04:01:25.648Z,100.00
2022-11-05T04:03:53.633Z,100.00
2022-11-05T04:06:20.250Z,100.00
2022-11-05T04:08:46.846Z,100.00
2022-11-05T04:11:13.497Z,100.00
2022-11-05T04:13:40.046Z,100.00
2022-11-05T04:16:07.081Z,100.00
2022-11-05T04:18:33.624Z,100.00
2022-11-05T04:21:01.656Z,100.00
2022-11-05T04:23:28.171Z,100.00
2022-11-05T04:25:55.252Z,100.00
2022-11-05T04:28:21.804Z,100.00
2022-11-05T04:30:48.500Z,100.00
2022-11-05T04:33:16.371Z,100.00
2022-11-05T04:35:44.720Z,100.00
2022-11-05T04:38:14.082Z,100.00
2022-11-05T04:40:41.907Z,100.00
2022-11-05T04:43:15.194Z,100.00
2022-11-05T04:45:42.391Z,100.00
2022-11-05T04:48:09.171Z,100.00
2022-11-05T04:50:35.877Z,100.00
2022-11-05T04:53:02.803Z,100.00
2022-11-05T04:55:30.724Z,100.00
2022-11-05T04:57:57.241Z,100.00
2022-11-05T05:00:24.503Z,100.00
2022-11-05T05:02:50.996Z,100.00
2022-11-05T05:05:17.790Z,100.00
2022-11-05T05:07:44.363Z,100.00
2022-11-05T05:10:11.672Z,99.93
2022-11-05T05:12:39.571Z,99.26
2022-11-05T05:15:07.569Z,98.83
2022-11-05T05:17:34.103Z,99.13
2022-11-05T05:20:00.651Z,99.11
2022-11-05T05:22:27.603Z,98.73
2022-11-05T05:24:54.245Z,99.02
2022-11-05T05:27:20.747Z,98.19
2022-11-05T05:29:48.749Z,98.45
2022-11-05T05:32:15.273Z,98.38
2022-11-05T05:34:41.843Z,98.49
2022-11-05T05:37:08.503Z,98.55
2022-11-05T05:39:35.087Z,99.11
2022-11-05T05:42:01.570Z,99.14
2022-11-05T05:44:28.167Z,99.38
2022-11-05T05:46:56.050Z,98.98
2022-11-05T05:49:22.591Z,99.44
2022-11-05T05:51:49.447Z,99.23
2022-11-05T05:54:16.212Z,100.00
2022-11-05T05:56:43.248Z,100.00
2022-11-05T05:59:10.059Z,100.00
2022-11-05T06:01:36.804Z,100.00
2022-11-05T06:04:05.084Z,100.00
2022-11-05T06:06:31.723Z,100.00
2022-11-05T06:08:58.289Z,100.00
2022-11-05T06:11:25.400Z,100.00
2022-11-05T06:13:52.031Z,100.00
2022-11-05T06:16:18.598Z,100.00
2022-11-05T06:18:45.760Z,100.00
2022-11-05T06:21:16.342Z,100.00
2022-11-05T06:23:44.759Z,100.00
2022-11-05T06:26:13.140Z,100.00
2022-11-05T06:28:40.089Z,100.00
2022-11-05T06:31:06.584Z,100.00
2022-11-05T06:33:33.401Z,100.00
2022-11-05T06:36:01.094Z,100.00
2022-11-05T06:38:32.055Z,100.00
2022-11-05T06:40:59.696Z,100.00
2022-11-05T06:43:26.985Z,100.00
2022-11-05T06:45:53.704Z,100.00
2022-11-05T06:48:20.421Z,100.00
2022-11-05T06:50:47.179Z,100.00
2022-11-05T06:53:14.055Z,100.00
2022-11-05T06:55:42.125Z,100.00
2022-11-05T06:58:08.656Z,100.00
2022-11-05T07:00:35.361Z,100.00
2022-11-05T07:03:05.597Z,100.00
2022-11-05T07:05:32.824Z,100.00
2022-11-05T07:07:59.363Z,100.00
2022-11-05T07:10:25.978Z,100.00
2022-11-05T07:12:53.917Z,100.00
2022-11-05T07:15:20.493Z,100.00
2022-11-05T07:17:47.104Z,100.00
2022-11-05T07:20:13.724Z,100.00
2022-11-05T07:22:40.286Z,100.00
2022-11-05T07:25:07.677Z,100.00
2022-11-05T07:27:37.489Z,100.00
2022-11-05T07:30:07.327Z,100.00
2022-11-05T07:32:37.670Z,100.00
2022-11-05T07:35:05.194Z,100.00
2022-11-05T07:37:31.708Z,100.00
2022-11-05T07:39:58.475Z,100.00
2022-11-05T07:42:25.144Z,100.00
2022-11-05T07:44:51.770Z,100.00
2022-11-05T07:47:19.759Z,100.00
2022-11-05T07:49:46.359Z,100.00
2022-11-05T07:52:12.901Z,100.00
2022-11-05T07:54:39.571Z,100.00
2022-11-05T07:57:06.097Z,100.00
2022-11-05T07:59:32.685Z,100.00
2022-11-05T08:01:59.510Z,100.00
2022-11-05T08:04:27.497Z,100.00
2022-11-05T08:06:54.085Z,100.00
2022-11-05T08:09:20.816Z,100.00
2022-11-05T08:11:47.708Z,100.00
2022-11-05T08:14:14.270Z,100.00
2022-11-05T08:16:40.960Z,100.00
2022-11-05T08:19:07.572Z,100.00
2022-11-05T08:21:35.563Z,100.00
2022-11-05T08:24:02.128Z,99.35
2022-11-05T08:26:28.650Z,98.47
2022-11-05T08:28:55.219Z,98.37
2022-11-05T08:31:21.724Z,98.91
2022-11-05T08:33:48.322Z,98.60
2022-11-05T08:36:14.856Z,98.66
2022-11-05T08:38:42.816Z,98.93
2022-11-05T08:41:09.446Z,99.64
2022-11-05T08:43:36.056Z,99.91
2022-11-05T08:46:02.857Z,100.00
2022-11-05T08:48:29.478Z,99.70
2022-11-05T08:50:55.971Z,99.71
2022-11-05T08:53:22.918Z,99.19
2022-11-05T08:55:50.794Z,98.19
2022-11-05T08:58:18.737Z,97.78
2022-11-05T09:00:47.043Z,97.92
2022-11-05T09:03:14.670Z,97.96
2022-11-05T09:05:42.170Z,97.17
2022-11-05T09:08:11.012Z,97.11
2022-11-05T09:10:37.727Z,96.63
2022-11-05T09:13:13.050Z,96.55
2022-11-05T09:15:43.467Z,96.84
2022-11-05T09:18:12.816Z,96.94
2022-11-05T09:20:39.715Z,97.14
2022-11-05T09:23:06.703Z,96.86
2022-11-05T09:25:33.316Z,96.60
2022-11-05T09:28:13.415Z,96.65
2022-11-05T09:30:43.578Z,96.60
2022-11-05T09:33:10.598Z,96.89
2022-11-05T09:35:38.743Z,96.77
2022-11-05T09:38:05.502Z,96.64
2022-11-05T09:40:35.963Z,95.99
2022-11-05T09:43:03.627Z,96.77
2022-11-05T09:45:35.303Z,95.66
2022-11-05T09:48:08.056Z,95.96
2022-11-05T09:50:39.771Z,95.45
2022-11-05T09:53:07.356Z,94.46
2022-11-05T09:55:37.254Z,92.68
2022-11-05T09:58:13.530Z,92.49
2022-11-05T10:00:41.995Z,93.08
2022-11-05T10:03:14.241Z,93.02
2022-11-05T10:05:41.126Z,91.76
2022-11-05T10:08:13.895Z,92.16
2022-11-05T10:10:44.121Z,92.01
2022-11-05T10:13:19.278Z,91.44
2022-11-05T10:16:01.315Z,89.50
2022-11-05T10:18:33.024Z,88.50
2022-11-05T10:21:00.319Z,87.83
2022-11-05T10:23:27.790Z,88.01
2022-11-05T10:25:56.892Z,88.09
2022-11-05T10:28:25.900Z,85.50
2022-11-05T10:30:58.348Z,84.56
2022-11-05T10:33:30.501Z,84.22
2022-11-05T10:36:03.265Z,83.72
2022-11-05T10:38:30.184Z,83.50
2022-11-05T10:41:09.396Z,82.25
2022-11-05T10:43:42.563Z,80.56
2022-11-05T10:46:24.433Z,77.25
2022-11-05T10:48:56.061Z,77.63
2022-11-05T10:51:22.779Z,79.54
2022-11-05T10:53:58.708Z,77.72
2022-11-05T10:56:29.903Z,78.23
2022-11-05T10:58:58.346Z,78.70
2022-11-05T11:01:26.868Z,75.40
2022-11-05T11:04:06.038Z,72.85
2022-11-05T11:06:35.744Z,71.96
2022-11-05T11:09:05.703Z,71.55
2022-11-05T11:11:34.483Z,68.33
2022-11-05T11:14:04.446Z,67.11
2022-11-05T11:16:36.471Z,68.04
2022-11-05T11:19:04.028Z,67.53
2022-11-05T11:21:31.933Z,67.15
2022-11-05T11:24:00.354Z,67.31
2022-11-05T11:26:30.732Z,66.79
2022-11-05T11:29:00.426Z,68.34
2022-11-05T11:31:30.203Z,67.26
2022-11-05T11:34:02.074Z,64.72
2022-11-05T11:36:34.598Z,65.20
2022-11-05T11:39:03.035Z,64.45
2022-11-05T11:41:34.221Z,64.59
2022-11-05T11:44:04.767Z,65.10
2022-11-05T11:46:33.725Z,62.74
2022-11-05T11:49:02.487Z,63.54
2022-11-05T11:51:35.381Z,63.66
2022-11-05T11:54:02.897Z,64.17
2022-11-05T11:56:42.278Z,64.19
2022-11-05T11:59:35.105Z,64.14
2022-11-05T12:02:40.895Z,64.25
2022-11-05T12:05:22.957Z,63.77
2022-11-05T12:07:52.169Z,65.63
2022-11-05T12:10:28.383Z,65.79
2022-11-05T12:13:10.737Z,63.29
2022-11-05T12:15:47.976Z,66.24
2022-11-05T12:18:22.313Z,64.44
2022-11-05T12:21:14.377Z,63.39
2022-11-05T12:24:04.691Z,63.75
2022-11-05T12:26:42.558Z,63.91
2022-11-05T12:29:32.934Z,63.25
2022-11-05T12:32:24.674Z,63.86
2022-11-05T12:34:58.338Z,63.86
2022-11-05T12:37:32.404Z,63.36
2022-11-05T12:40:18.969Z,63.08
2022-11-05T12:42:58.519Z,63.74
2022-11-05T12:45:37.475Z,63.63
2022-11-05T12:48:27.640Z,64.74
2022-11-05T12:51:07.864Z,64.41
2022-11-05T12:53:56.472Z,63.19
2022-11-05T12:56:30.835Z,63.85
2022-11-05T12:59:02.792Z,63.72
2022-11-05T13:01:34.895Z,63.26
2022-11-05T13:04:06.166Z,63.66
2022-11-05T13:06:37.635Z,63.33
2022-11-05T13:09:12.381Z,63.71
2022-11-05T13:11:45.385Z,62.56
2022-11-05T13:14:16.057Z,63.34
2022-11-05T13:16:47.058Z,62.29
2022-11-05T13:19:18.847Z,61.13
2022-11-05T13:21:48.068Z,61.67
2022-11-05T13:24:20.774Z,61.19
2022-11-05T13:26:52.794Z,61.21
2022-11-05T13:29:23.304Z,61.31
2022-11-05T13:31:53.380Z,60.78
2022-11-05T13:34:20.159Z,61.15
2022-11-05T13:36:52.313Z,61.94
2022-11-05T13:39:26.055Z,61.80
2022-11-05T13:42:30.806Z,61.17
2022-11-05T13:45:25.802Z,61.50
2022-11-05T13:48:08.659Z,62.15
2022-11-05T13:50:52.613Z,61.92
2022-11-05T13:53:44.004Z,61.68
2022-11-05T13:56:25.016Z,62.41
2022-11-05T13:59:04.587Z,62.26
2022-11-05T14:01:44.485Z,61.80
2022-11-05T14:04:18.986Z,60.95
2022-11-05T14:06:46.157Z,61.57
2022-11-05T14:09:19.910Z,62.00
2022-11-05T14:11:52.849Z,63.00
2022-11-05T14:14:22.625Z,62.12
2022-11-05T14:16:52.248Z,62.39
2022-11-05T14:19:33.378Z,62.64
2022-11-05T14:22:00.952Z,63.10
2022-11-05T14:24:39.396Z,61.98
2022-11-05T14:27:43.431Z,61.75
2022-11-05T14:30:41.912Z,62.36
2022-11-05T14:33:17.652Z,62.92
2022-11-05T14:35:44.332Z,63.11
2022-11-05T14:38:23.087Z,62.78
2022-11-05T14:40:58.024Z,63.75
2022-11-05T14:43:28.821Z,64.16
2022-11-05T14:45:58.831Z,64.59
2022-11-05T14:48:35.117Z,65.57
2022-11-05T14:51:02.202Z,63.58
2022-11-05T14:53:32.740Z,66.06
2022-11-05T14:56:03.115Z,67.69
2022-11-05T14:58:38.573Z,68.94
2022-11-05T15:01:06.705Z,69.63
2022-11-05T15:04:00.942Z,70.72
2022-11-05T15:06:28.598Z,71.45
2022-11-05T15:09:16.622Z,71.48
2022-11-05T15:11:49.901Z,71.69
2022-11-05T15:14:22.803Z,72.26
2022-11-05T15:16:52.634Z,72.39
2022-11-05T15:19:23.279Z,72.56
2022-11-05T15:21:53.183Z,73.56
2022-11-05T15:24:20.567Z,73.81
2022-11-05T15:26:53.933Z,73.76
2022-11-05T15:29:26.165Z,73.91
2022-11-05T15:31:53.170Z,74.06
2022-11-05T15:34:23.259Z,74.74
2022-11-05T15:36:52.601Z,75.23
2022-11-05T15:39:31.709Z,75.49
2022-11-05T15:42:01.977Z,75.77
2022-11-05T15:44:32.340Z,75.86
2022-11-05T15:47:07.324Z,75.95
2022-11-05T15:49:34.229Z,76.49
2022-11-05T15:52:00.774Z,76.64
2022-11-05T15:54:31.247Z,77.04
2022-11-05T15:56:59.473Z,76.75
2022-11-05T15:59:28.366Z,76.99
2022-11-05T16:01:58.572Z,77.31
2022-11-05T16:04:28.505Z,77.50
2022-11-05T16:06:59.555Z,77.76
2022-11-05T16:09:28.216Z,77.58
2022-11-05T16:12:13.940Z,77.68
2022-11-05T16:14:40.859Z,78.37
2022-11-05T16:17:18.533Z,78.71
2022-11-05T16:19:45.908Z,78.82
2022-11-05T16:22:12.583Z,79.00
2022-11-05T16:24:39.659Z,79.17
2022-11-05T16:27:06.656Z,79.32
2022-11-05T16:29:35.534Z,79.68
2022-11-05T16:32:04.453Z,79.83
2022-11-05T16:34:36.942Z,79.86
2022-11-05T16:37:05.289Z,80.02
2022-11-05T16:39:32.245Z,80.31
2022-11-05T16:41:59.061Z,80.48
2022-11-05T16:44:25.596Z,80.53
2022-11-05T16:46:52.420Z,80.98
2022-11-05T16:49:19.026Z,81.02
2022-11-05T16:51:47.190Z,81.38
2022-11-05T16:54:13.689Z,81.49
2022-11-05T16:56:40.384Z,81.69
2022-11-05T16:59:10.361Z,82.11
2022-11-05T17:01:39.857Z,82.34
2022-11-05T17:04:09.424Z,82.30
2022-11-05T17:06:36.081Z,82.67
2022-11-05T17:09:03.993Z,82.94
2022-11-05T17:11:30.567Z,83.16
2022-11-05T17:13:57.187Z,83.46
2022-11-05T17:16:25.407Z,83.42
2022-11-05T17:18:51.953Z,83.72
2022-11-05T17:21:18.673Z,83.64
2022-11-05T17:23:45.268Z,83.63
2022-11-05T17:26:13.846Z,84.21
2022-11-05T17:28:40.991Z,84.26
2022-11-05T17:31:09.325Z,84.57
2022-11-05T17:33:36.040Z,84.56
2022-11-05T17:36:05.823Z,84.70
2022-11-05T17:38:32.375Z,84.83
2022-11-05T17:40:58.907Z,84.97
2022-11-05T17:43:27.198Z,85.19
2022-11-05T17:45:53.982Z,85.62
2022-11-05T17:48:20.904Z,85.76
2022-11-05T17:50:49.558Z,86.13
2022-11-05T17:53:18.343Z,86.08
2022-11-05T17:55:46.289Z,86.11
2022-11-05T17:58:13.148Z,86.21
2022-11-05T18:00:43.585Z,86.58
2022-11-05T18:03:11.980Z,87.10
2022-11-05T18:05:39.549Z,87.11
2022-11-05T18:08:06.509Z,87.19
2022-11-05T18:10:35.646Z,87.58
2022-11-05T18:13:02.213Z,87.85
2022-11-05T18:15:28.777Z,88.02
2022-11-05T18:17:56.654Z,87.82
2022-11-05T18:20:23.202Z,88.29
2022-11-05T18:22:50.427Z,88.33
2022-11-05T18:25:17.625Z,88.36
2022-11-05T18:27:44.330Z,88.64
2022-11-05T18:30:12.173Z,88.62
2022-11-05T18:32:38.792Z,88.64
2022-11-05T18:35:07.473Z,88.93
2022-11-05T18:37:34.093Z,88.90
2022-11-05T18:40:00.603Z,88.93
2022-11-05T18:42:27.348Z,89.12
2022-11-05T18:44:53.902Z,89.00
2022-11-05T18:47:20.407Z,89.11
2022-11-05T18:49:47.003Z,89.12
2022-11-05T18:52:15.189Z,89.11
2022-11-05T18:54:41.749Z,89.05
2022-11-05T18:57:08.413Z,89.04
2022-11-05T18:59:38.740Z,88.93
2022-11-05T19:02:07.460Z,89.15
2022-11-05T19:04:35.710Z,89.32
2022-11-05T19:07:05.138Z,89.10
2022-11-05T19:09:34.557Z,89.22
2022-11-05T19:12:01.480Z,89.31
2022-11-05T19:14:28.205Z,89.25
2022-11-05T19:16:54.697Z,89.63
2022-11-05T19:19:21.336Z,89.71
2022-11-05T19:21:47.911Z,89.40
2022-11-05T19:24:17.573Z,89.69
2022-11-05T19:26:45.824Z,89.52
2022-11-05T19:29:12.451Z,89.86
2022-11-05T19:31:39.087Z,89.83
2022-11-05T19:34:05.727Z,90.11
2022-11-05T19:36:33.237Z,90.15
2022-11-05T19:39:01.804Z,90.37
2022-11-05T19:41:28.665Z,90.17
2022-11-05T19:43:56.734Z,90.42
2022-11-05T19:46:24.722Z,90.58
2022-11-05T19:48:51.853Z,90.47
2022-11-05T19:51:20.627Z,90.26
2022-11-05T19:53:47.193Z,90.10
2022-11-05T19:56:15.690Z,90.14
2022-11-05T19:58:42.929Z,90.05
2022-11-05T20:01:11.864Z,89.91
2022-11-05T20:03:38.795Z,89.99
2022-11-05T20:06:07.765Z,89.99
2022-11-05T20:08:47.615Z,89.89
2022-11-05T20:11:21.250Z,89.85
2022-11-05T20:13:47.811Z,89.97
2022-11-05T20:16:33.006Z,89.85
2022-11-05T20:18:59.765Z,89.93
2022-11-05T20:21:26.444Z,90.25
2022-11-05T20:23:55.300Z,89.83
2022-11-05T20:26:21.878Z,89.91
2022-11-05T20:28:49.103Z,90.23
2022-11-05T20:31:17.554Z,90.21
2022-11-05T20:33:46.565Z,90.23
2022-11-05T20:36:15.215Z,90.03
2022-11-05T20:38:41.891Z,90.01
2022-11-05T20:41:09.822Z,89.84
2022-11-05T20:43:37.007Z,89.96
2022-11-05T20:46:04.269Z,89.88
2022-11-05T20:48:32.014Z,89.93
2022-11-05T20:51:05.306Z,90.02
2022-11-05T20:53:31.911Z,89.78
2022-11-05T20:55:59.277Z,89.66
2022-11-05T20:58:28.541Z,90.16
2022-11-05T21:00:56.060Z,90.00
2022-11-05T21:03:23.655Z,90.00
2022-11-05T21:05:52.203Z,89.88
2022-11-05T21:08:20.534Z,90.18
2022-11-05T21:10:51.234Z,90.08
2022-11-05T21:13:18.175Z,90.36
2022-11-05T21:15:47.939Z,90.45
2022-11-05T21:18:14.968Z,90.48
2022-11-05T21:20:41.669Z,90.35
2022-11-05T21:23:08.261Z,90.36
2022-11-05T21:25:39.262Z,90.25
2022-11-05T21:28:06.285Z,90.43
2022-11-05T21:30:32.999Z,90.70
2022-11-05T21:32:59.806Z,90.45
2022-11-05T21:35:26.472Z,90.13
2022-11-05T21:37:53.104Z,90.25
2022-11-05T21:40:19.663Z,90.30
2022-11-05T21:42:47.629Z,90.66
2022-11-05T21:45:14.182Z,90.37
2022-11-05T21:47:40.970Z,90.14
2022-11-05T21:50:08.646Z,90.32
2022-11-05T21:52:35.176Z,90.55
2022-11-05T21:55:01.783Z,90.99
2022-11-05T21:57:28.454Z,91.11
2022-11-05T21:59:56.614Z,91.64
2022-11-05T22:02:24.808Z,91.67
2022-11-05T22:04:53.348Z,91.32
2022-11-05T22:07:22.200Z,91.52
2022-11-05T22:09:49.146Z,92.14
2022-11-05T22:12:16.161Z,92.38
2022-11-05T22:14:43.491Z,92.34
2022-11-05T22:17:12.860Z,92.65
2022-11-05T22:19:39.945Z,92.30
2022-11-05T22:22:06.906Z,92.35
2022-11-05T22:24:34.435Z,92.58
2022-11-05T22:27:03.135Z,92.43
2022-11-05T22:29:29.945Z,92.09
2022-11-05T22:31:56.973Z,92.19
2022-11-05T22:34:25.126Z,92.45
2022-11-05T22:36:51.983Z,93.07
2022-11-05T22:39:18.583Z,93.21
2022-11-05T22:41:45.383Z,92.77
2022-11-05T22:44:12.118Z,93.67
2022-11-05T22:46:38.744Z,93.59
2022-11-05T22:49:05.849Z,93.51
2022-11-05T22:51:36.766Z,94.17
2022-11-05T22:54:04.755Z,94.21
2022-11-05T22:56:35.352Z,93.93
2022-11-05T22:59:01.966Z,93.60
2022-11-05T23:01:29.086Z,94.07
2022-11-05T23:03:57.448Z,94.40
2022-11-05T23:06:25.557Z,95.15
2022-11-05T23:08:53.558Z,95.24
2022-11-05T23:11:22.867Z,95.21
2022-11-05T23:13:49.471Z,96.08
2022-11-05T23:16:15.968Z,95.01
2022-11-05T23:18:42.568Z,95.40
2022-11-05T23:21:09.089Z,95.08
2022-11-05T23:23:35.677Z,95.55
2022-11-05T23:26:03.629Z,95.66
2022-11-05T23:28:30.242Z,95.56
2022-11-05T23:30:56.765Z,96.03
2022-11-05T23:33:23.938Z,96.44
2022-11-05T23:35:50.473Z,96.75
2022-11-05T23:38:17.051Z,96.88
2022-11-05T23:40:43.668Z,96.61
2022-11-05T23:43:11.864Z,96.92
2022-11-05T23:45:39.250Z,97.17
2022-11-05T23:48:07.246Z,97.08
2022-11-05T23:50:38.566Z,97.92
2022-11-05T23:53:07.220Z,97.61
2022-11-05T23:55:33.788Z,97.83
2022-11-05T23:58:00.628Z,98.27
